Flowella, Texas
Current Conditions -  °F | °C
As of 10:55 AM on Monday 22 Dec 2014 (Local Time) from KBKS Reporting Station
Overcast Overcast  
Wind Chill: 63°   Ceiling: 600
Heat Index: 63°   Visibility: 10mi
Dew Point: 60°   Wind: 9mph
Humidity: 91%   Direction: 200°SSW
Pressure: 29.79"   Gusts: NA
Location:  27.2181°N, 98.2459°W
Report Text: KBKS 221655Z AUTO 20008KT 10SM OVC006 17/16 A2979 RMK AO1 T01710157
Loading
Personal Weather Stations






























Interactive Weather Map New forecast layout! Learn more

10-Day Weather Forecast

Advertisements
Track Severe Weather on mobile